sensor_id;sensor_type;location;lat;lon;timestamp;temperature;humidity
64209;DHT22;50527;52.414;13.226;2023-02-13T00:00:08;8.50;99.90
64209;DHT22;50527;52.414;13.226;2023-02-13T00:02:34;8.50;99.90
64209;DHT22;50527;52.414;13.226;2023-02-13T00:04:59;8.60;99.90
64209;DHT22;50527;52.414;13.226;2023-02-13T00:07:25;8.60;99.90
64209;DHT22;50527;52.414;13.226;2023-02-13T00:09:50;8.60;99.90
64209;DHT22;50527;52.414;13.226;2023-02-13T00:12:15;8.50;99.90
64209;DHT22;50527;52.414;13.226;2023-02-13T00:14:41;8.50;99.90
64209;DHT22;50527;52.414;13.226;2023-02-13T00:17:06;8.60;99.90
64209;DHT22;50527;52.414;13.226;2023-02-13T00:19:32;8.50;99.90
64209;DHT22;50527;52.414;13.226;2023-02-13T00:21:57;8.60;99.90
64209;DHT22;50527;52.414;13.226;2023-02-13T00:24:23;8.50;99.90
64209;DHT22;50527;52.414;13.226;2023-02-13T00:26:48;8.50;99.90
64209;DHT22;50527;52.414;13.226;2023-02-13T00:29:14;8.40;99.90
64209;DHT22;50527;52.414;13.226;2023-02-13T00:31:39;8.50;99.90
64209;DHT22;50527;52.414;13.226;2023-02-13T00:34:05;8.50;99.90
64209;DHT22;50527;52.414;13.226;2023-02-13T00:36:30;8.50;99.90
64209;DHT22;50527;52.414;13.226;2023-02-13T00:38:56;8.50;99.90
64209;DHT22;50527;52.414;13.226;2023-02-13T00:41:22;8.40;99.90
64209;DHT22;50527;52.414;13.226;2023-02-13T00:43:48;8.40;99.90
64209;DHT22;50527;52.414;13.226;2023-02-13T00:46:15;8.40;99.90
64209;DHT22;50527;52.414;13.226;2023-02-13T00:48:40;8.30;99.90
64209;DHT22;50527;52.414;13.226;2023-02-13T00:51:07;8.40;99.90
64209;DHT22;50527;52.414;13.226;2023-02-13T00:53:34;8.30;99.90
64209;DHT22;50527;52.414;13.226;2023-02-13T00:55:59;8.20;99.90
64209;DHT22;50527;52.414;13.226;2023-02-13T00:58:25;8.30;99.90
64209;DHT22;50527;52.414;13.226;2023-02-13T01:00:52;8.30;99.90
64209;DHT22;50527;52.414;13.226;2023-02-13T01:03:19;8.40;99.90
64209;DHT22;50527;52.414;13.226;2023-02-13T01:05:44;8.30;99.90
64209;DHT22;50527;52.414;13.226;2023-02-13T01:08:11;8.40;99.90
64209;DHT22;50527;52.414;13.226;2023-02-13T01:10:39;8.40;99.90
64209;DHT22;50527;52.414;13.226;2023-02-13T01:13:05;8.40;99.90
64209;DHT22;50527;52.414;13.226;2023-02-13T01:15:31;8.40;99.90
64209;DHT22;50527;52.414;13.226;2023-02-13T01:17:58;8.40;99.90
64209;DHT22;50527;52.414;13.226;2023-02-13T01:20:25;8.50;99.90
64209;DHT22;50527;52.414;13.226;2023-02-13T01:22:51;8.50;99.90
64209;DHT22;50527;52.414;13.226;2023-02-13T01:25:16;8.50;99.90
64209;DHT22;50527;52.414;13.226;2023-02-13T01:27:42;8.50;99.90
64209;DHT22;50527;52.414;13.226;2023-02-13T01:30:10;8.50;99.90
64209;DHT22;50527;52.414;13.226;2023-02-13T01:32:38;8.50;99.90
64209;DHT22;50527;52.414;13.226;2023-02-13T01:35:04;8.50;99.90
64209;DHT22;50527;52.414;13.226;2023-02-13T01:37:30;8.50;99.90
64209;DHT22;50527;52.414;13.226;2023-02-13T01:39:55;8.50;99.90
64209;DHT22;50527;52.414;13.226;2023-02-13T01:42:25;8.50;99.90
64209;DHT22;50527;52.414;13.226;2023-02-13T01:44:52;8.50;99.90
64209;DHT22;50527;52.414;13.226;2023-02-13T01:47:45;8.60;99.90
64209;DHT22;50527;52.414;13.226;2023-02-13T01:50:20;8.40;99.90
64209;DHT22;50527;52.414;13.226;2023-02-13T01:52:54;8.50;99.90
64209;DHT22;50527;52.414;13.226;2023-02-13T01:55:23;8.50;99.90
64209;DHT22;50527;52.414;13.226;2023-02-13T01:57:56;8.60;99.90
64209;DHT22;50527;52.414;13.226;2023-02-13T02:00:23;8.50;99.90
64209;DHT22;50527;52.414;13.226;2023-02-13T02:03:00;8.40;99.90
64209;DHT22;50527;52.414;13.226;2023-02-13T02:05:29;8.40;99.90
64209;DHT22;50527;52.414;13.226;2023-02-13T02:07:57;8.30;99.90
64209;DHT22;50527;52.414;13.226;2023-02-13T02:10:24;8.30;99.90
64209;DHT22;50527;52.414;13.226;2023-02-13T02:13:14;8.20;99.90
64209;DHT22;50527;52.414;13.226;2023-02-13T02:15:42;8.20;99.90
64209;DHT22;50527;52.414;13.226;2023-02-13T02:21:37;8.30;99.90
64209;DHT22;50527;52.414;13.226;2023-02-13T02:33:26;8.20;99.90
64209;DHT22;50527;52.414;13.226;2023-02-13T02:39:12;8.10;99.90
64209;DHT22;50527;52.414;13.226;2023-02-13T02:44:28;8.20;99.90
64209;DHT22;50527;52.414;13.226;2023-02-13T02:47:08;8.20;99.90
64209;DHT22;50527;52.414;13.226;2023-02-13T02:50:02;8.10;99.90
64209;DHT22;50527;52.414;13.226;2023-02-13T02:52:56;8.20;99.90
64209;DHT22;50527;52.414;13.226;2023-02-13T02:55:35;8.20;99.90
64209;DHT22;50527;52.414;13.226;2023-02-13T03:00:56;8.10;99.90
64209;DHT22;50527;52.414;13.226;2023-02-13T03:03:41;8.10;99.90
64209;DHT22;50527;52.414;13.226;2023-02-13T03:09:04;8.00;99.90
64209;DHT22;50527;52.414;13.226;2023-02-13T03:11:51;8.00;99.90
64209;DHT22;50527;52.414;13.226;2023-02-13T03:14:37;8.10;99.90
64209;DHT22;50527;52.414;13.226;2023-02-13T03:17:02;8.10;99.90
64209;DHT22;50527;52.414;13.226;2023-02-13T03:22:54;8.10;99.90
64209;DHT22;50527;52.414;13.226;2023-02-13T03:25:33;8.00;99.90
64209;DHT22;50527;52.414;13.226;2023-02-13T03:31:16;8.00;99.90
64209;DHT22;50527;52.414;13.226;2023-02-13T03:36:33;8.00;99.90
64209;DHT22;50527;52.414;13.226;2023-02-13T03:39:30;8.00;99.90
64209;DHT22;50527;52.414;13.226;2023-02-13T03:42:26;8.00;99.90
64209;DHT22;50527;52.414;13.226;2023-02-13T03:45:09;8.00;99.90
64209;DHT22;50527;52.414;13.226;2023-02-13T03:47:56;7.90;99.90
64209;DHT22;50527;52.414;13.226;2023-02-13T03:50:24;8.00;99.90
64209;DHT22;50527;52.414;13.226;2023-02-13T03:53:01;8.00;99.90
64209;DHT22;50527;52.414;13.226;2023-02-13T03:55:31;8.00;99.90
64209;DHT22;50527;52.414;13.226;2023-02-13T03:58:22;8.00;99.90
64209;DHT22;50527;52.414;13.226;2023-02-13T04:01:08;8.00;99.90
64209;DHT22;50527;52.414;13.226;2023-02-13T04:03:53;8.00;99.90
64209;DHT22;50527;52.414;13.226;2023-02-13T04:06:26;8.10;99.90
64209;DHT22;50527;52.414;13.226;2023-02-13T04:08:51;8.00;99.90
64209;DHT22;50527;52.414;13.226;2023-02-13T04:11:27;8.00;99.90
64209;DHT22;50527;52.414;13.226;2023-02-13T04:14:19;8.00;99.90
64209;DHT22;50527;52.414;13.226;2023-02-13T04:16:50;8.00;99.90
64209;DHT22;50527;52.414;13.226;2023-02-13T04:19:17;8.00;99.90
64209;DHT22;50527;52.414;13.226;2023-02-13T04:21:42;8.00;99.90
64209;DHT22;50527;52.414;13.226;2023-02-13T04:24:09;8.00;99.90
64209;DHT22;50527;52.414;13.226;2023-02-13T04:26:40;8.00;99.90
64209;DHT22;50527;52.414;13.226;2023-02-13T04:29:07;7.90;99.90
64209;DHT22;50527;52.414;13.226;2023-02-13T04:31:33;7.90;99.90
64209;DHT22;50527;52.414;13.226;2023-02-13T04:33:58;7.90;99.90
64209;DHT22;50527;52.414;13.226;2023-02-13T04:36:24;7.90;99.90
64209;DHT22;50527;52.414;13.226;2023-02-13T04:38:50;7.90;99.90
64209;DHT22;50527;52.414;13.226;2023-02-13T04:41:15;7.90;99.90
64209;DHT22;50527;52.414;13.226;2023-02-13T04:43:41;7.90;99.90
64209;DHT22;50527;52.414;13.226;2023-02-13T04:46:06;7.90;99.90
64209;DHT22;50527;52.414;13.226;2023-02-13T04:48:32;7.80;99.90
64209;DHT22;50527;52.414;13.226;2023-02-13T04:50:57;7.80;99.90
64209;DHT22;50527;52.414;13.226;2023-02-13T04:53:23;7.90;99.90
64209;DHT22;50527;52.414;13.226;2023-02-13T04:55:48;7.90;99.90
64209;DHT22;50527;52.414;13.226;2023-02-13T04:58:14;8.00;99.90
64209;DHT22;50527;52.414;13.226;2023-02-13T05:00:39;7.90;99.90
64209;DHT22;50527;52.414;13.226;2023-02-13T05:03:12;7.90;99.90
64209;DHT22;50527;52.414;13.226;2023-02-13T05:05:38;7.80;99.90
64209;DHT22;50527;52.414;13.226;2023-02-13T05:08:06;7.80;99.90
64209;DHT22;50527;52.414;13.226;2023-02-13T05:10:31;7.80;99.90
64209;DHT22;50527;52.414;13.226;2023-02-13T05:12:57;7.80;99.90
64209;DHT22;50527;52.414;13.226;2023-02-13T05:15:23;7.90;99.90
64209;DHT22;50527;52.414;13.226;2023-02-13T05:17:48;7.80;99.90
64209;DHT22;50527;52.414;13.226;2023-02-13T05:20:14;7.80;99.90
64209;DHT22;50527;52.414;13.226;2023-02-13T05:22:48;7.80;99.90
64209;DHT22;50527;52.414;13.226;2023-02-13T05:25:34;7.80;99.90
64209;DHT22;50527;52.414;13.226;2023-02-13T05:28:00;7.80;99.90
64209;DHT22;50527;52.414;13.226;2023-02-13T05:30:26;7.80;99.90
64209;DHT22;50527;52.414;13.226;2023-02-13T05:32:51;7.80;99.90
64209;DHT22;50527;52.414;13.226;2023-02-13T05:35:18;7.80;99.90
64209;DHT22;50527;52.414;13.226;2023-02-13T05:37:44;7.80;99.90
64209;DHT22;50527;52.414;13.226;2023-02-13T05:40:10;7.80;99.90
64209;DHT22;50527;52.414;13.226;2023-02-13T05:42:36;7.80;99.90
64209;DHT22;50527;52.414;13.226;2023-02-13T05:45:01;7.90;99.90
64209;DHT22;50527;52.414;13.226;2023-02-13T05:47:27;7.80;99.90
64209;DHT22;50527;52.414;13.226;2023-02-13T05:49:52;7.80;99.90
64209;DHT22;50527;52.414;13.226;2023-02-13T05:52:18;7.80;99.90
64209;DHT22;50527;52.414;13.226;2023-02-13T05:54:43;7.80;99.90
64209;DHT22;50527;52.414;13.226;2023-02-13T05:57:09;7.80;99.90
64209;DHT22;50527;52.414;13.226;2023-02-13T05:59:34;7.70;99.90
64209;DHT22;50527;52.414;13.226;2023-02-13T06:02:00;7.70;99.90
64209;DHT22;50527;52.414;13.226;2023-02-13T06:04:25;7.70;99.90
64209;DHT22;50527;52.414;13.226;2023-02-13T06:06:51;7.80;99.90
64209;DHT22;50527;52.414;13.226;2023-02-13T06:09:16;7.70;99.90
64209;DHT22;50527;52.414;13.226;2023-02-13T06:11:42;7.80;99.90
64209;DHT22;50527;52.414;13.226;2023-02-13T06:14:07;7.70;99.90
64209;DHT22;50527;52.414;13.226;2023-02-13T06:16:33;7.70;99.90
64209;DHT22;50527;52.414;13.226;2023-02-13T06:18:59;7.60;99.90
64209;DHT22;50527;52.414;13.226;2023-02-13T06:21:25;7.70;99.90
64209;DHT22;50527;52.414;13.226;2023-02-13T06:23:50;7.70;99.90
64209;DHT22;50527;52.414;13.226;2023-02-13T06:26:16;7.70;99.90
64209;DHT22;50527;52.414;13.226;2023-02-13T06:28:41;7.80;99.90
64209;DHT22;50527;52.414;13.226;2023-02-13T06:31:07;7.70;99.90
64209;DHT22;50527;52.414;13.226;2023-02-13T06:33:32;7.70;99.90
64209;DHT22;50527;52.414;13.226;2023-02-13T06:35:58;7.80;99.90
64209;DHT22;50527;52.414;13.226;2023-02-13T06:38:23;7.70;99.90
64209;DHT22;50527;52.414;13.226;2023-02-13T06:40:49;7.70;99.90
64209;DHT22;50527;52.414;13.226;2023-02-13T06:43:15;7.60;99.90
64209;DHT22;50527;52.414;13.226;2023-02-13T06:45:42;7.50;99.90
64209;DHT22;50527;52.414;13.226;2023-02-13T06:48:08;7.60;99.90
64209;DHT22;50527;52.414;13.226;2023-02-13T06:50:34;7.70;99.90
64209;DHT22;50527;52.414;13.226;2023-02-13T06:53:00;7.60;99.90
64209;DHT22;50527;52.414;13.226;2023-02-13T06:55:26;7.60;99.90
64209;DHT22;50527;52.414;13.226;2023-02-13T06:57:52;7.60;99.90
64209;DHT22;50527;52.414;13.226;2023-02-13T07:00:18;7.60;99.90
64209;DHT22;50527;52.414;13.226;2023-02-13T07:02:46;7.60;99.90
64209;DHT22;50527;52.414;13.226;2023-02-13T07:05:11;7.60;99.90
64209;DHT22;50527;52.414;13.226;2023-02-13T07:07:39;7.60;99.90
64209;DHT22;50527;52.414;13.226;2023-02-13T07:10:07;7.60;99.90
64209;DHT22;50527;52.414;13.226;2023-02-13T07:12:34;7.60;99.90
64209;DHT22;50527;52.414;13.226;2023-02-13T07:15:01;7.60;99.90
64209;DHT22;50527;52.414;13.226;2023-02-13T07:17:26;7.60;99.90
64209;DHT22;50527;52.414;13.226;2023-02-13T07:19:52;7.70;99.90
64209;DHT22;50527;52.414;13.226;2023-02-13T07:22:18;7.80;99.90
64209;DHT22;50527;52.414;13.226;2023-02-13T07:24:43;7.80;99.90
64209;DHT22;50527;52.414;13.226;2023-02-13T07:27:09;7.80;99.90
64209;DHT22;50527;52.414;13.226;2023-02-13T07:29:34;7.80;99.90
64209;DHT22;50527;52.414;13.226;2023-02-13T07:32:00;7.80;99.90
64209;DHT22;50527;52.414;13.226;2023-02-13T07:34:25;7.80;99.90
64209;DHT22;50527;52.414;13.226;2023-02-13T07:36:51;7.80;99.90
64209;DHT22;50527;52.414;13.226;2023-02-13T07:39:16;7.90;99.90
64209;DHT22;50527;52.414;13.226;2023-02-13T07:41:42;7.80;99.90
64209;DHT22;50527;52.414;13.226;2023-02-13T07:44:07;7.80;99.90
64209;DHT22;50527;52.414;13.226;2023-02-13T07:46:33;7.90;99.90
64209;DHT22;50527;52.414;13.226;2023-02-13T07:48:58;7.90;99.90
64209;DHT22;50527;52.414;13.226;2023-02-13T07:51:24;7.90;99.90
64209;DHT22;50527;52.414;13.226;2023-02-13T07:53:51;8.00;99.90
64209;DHT22;50527;52.414;13.226;2023-02-13T07:56:17;8.00;99.90
64209;DHT22;50527;52.414;13.226;2023-02-13T07:58:43;8.00;99.90
64209;DHT22;50527;52.414;13.226;2023-02-13T08:01:11;8.00;99.90
64209;DHT22;50527;52.414;13.226;2023-02-13T08:03:37;7.90;99.90
64209;DHT22;50527;52.414;13.226;2023-02-13T08:06:03;8.00;99.90
64209;DHT22;50527;52.414;13.226;2023-02-13T08:08:29;8.00;99.90
64209;DHT22;50527;52.414;13.226;2023-02-13T08:10:55;8.00;99.90
64209;DHT22;50527;52.414;13.226;2023-02-13T08:13:40;8.00;99.90
64209;DHT22;50527;52.414;13.226;2023-02-13T08:16:06;8.00;99.90
64209;DHT22;50527;52.414;13.226;2023-02-13T08:18:31;8.00;99.90
64209;DHT22;50527;52.414;13.226;2023-02-13T08:20:57;8.00;99.90
64209;DHT22;50527;52.414;13.226;2023-02-13T08:23:22;8.10;99.90
64209;DHT22;50527;52.414;13.226;2023-02-13T08:25:48;8.10;99.90
64209;DHT22;50527;52.414;13.226;2023-02-13T08:28:15;8.10;99.90
64209;DHT22;50527;52.414;13.226;2023-02-13T08:30:41;8.20;99.90
64209;DHT22;50527;52.414;13.226;2023-02-13T08:33:06;8.20;99.90
64209;DHT22;50527;52.414;13.226;2023-02-13T08:35:32;8.20;99.90
64209;DHT22;50527;52.414;13.226;2023-02-13T08:38:02;8.20;99.90
64209;DHT22;50527;52.414;13.226;2023-02-13T08:40:27;8.20;99.90
64209;DHT22;50527;52.414;13.226;2023-02-13T08:42:59;8.20;99.90
64209;DHT22;50527;52.414;13.226;2023-02-13T08:45:25;8.20;99.90
64209;DHT22;50527;52.414;13.226;2023-02-13T08:47:54;8.20;99.90
64209;DHT22;50527;52.414;13.226;2023-02-13T08:50:19;8.20;99.90
64209;DHT22;50527;52.414;13.226;2023-02-13T08:52:45;8.20;99.90
64209;DHT22;50527;52.414;13.226;2023-02-13T08:55:10;8.30;99.90
64209;DHT22;50527;52.414;13.226;2023-02-13T08:57:35;8.30;99.90
64209;DHT22;50527;52.414;13.226;2023-02-13T09:00:01;8.40;99.90
64209;DHT22;50527;52.414;13.226;2023-02-13T09:02:27;8.30;99.90
64209;DHT22;50527;52.414;13.226;2023-02-13T09:04:52;8.30;99.90
64209;DHT22;50527;52.414;13.226;2023-02-13T09:07:17;8.30;99.90
64209;DHT22;50527;52.414;13.226;2023-02-13T09:09:43;8.20;99.90
64209;DHT22;50527;52.414;13.226;2023-02-13T09:12:08;8.30;99.90
64209;DHT22;50527;52.414;13.226;2023-02-13T09:14:34;8.30;99.90
64209;DHT22;50527;52.414;13.226;2023-02-13T09:16:59;8.40;99.90
64209;DHT22;50527;52.414;13.226;2023-02-13T09:19:25;8.40;99.90
64209;DHT22;50527;52.414;13.226;2023-02-13T09:21:50;8.40;99.90
64209;DHT22;50527;52.414;13.226;2023-02-13T09:24:16;8.40;99.90
64209;DHT22;50527;52.414;13.226;2023-02-13T09:26:41;8.50;99.90
64209;DHT22;50527;52.414;13.226;2023-02-13T09:29:07;8.50;99.90
64209;DHT22;50527;52.414;13.226;2023-02-13T09:31:32;8.50;99.90
64209;DHT22;50527;52.414;13.226;2023-02-13T09:33:57;8.60;99.90
64209;DHT22;50527;52.414;13.226;2023-02-13T09:36:23;8.60;99.90
64209;DHT22;50527;52.414;13.226;2023-02-13T09:38:54;8.60;99.90
64209;DHT22;50527;52.414;13.226;2023-02-13T09:41:31;8.60;99.90
64209;DHT22;50527;52.414;13.226;2023-02-13T09:44:05;8.60;99.90
64209;DHT22;50527;52.414;13.226;2023-02-13T09:46:37;8.70;99.90
64209;DHT22;50527;52.414;13.226;2023-02-13T09:49:14;8.60;99.90
64209;DHT22;50527;52.414;13.226;2023-02-13T09:51:42;8.70;99.90
64209;DHT22;50527;52.414;13.226;2023-02-13T09:54:14;8.70;99.90
64209;DHT22;50527;52.414;13.226;2023-02-13T09:57:06;8.60;99.90
64209;DHT22;50527;52.414;13.226;2023-02-13T09:59:56;8.60;99.90
64209;DHT22;50527;52.414;13.226;2023-02-13T10:02:38;8.50;99.90
64209;DHT22;50527;52.414;13.226;2023-02-13T10:05:22;8.50;99.90
64209;DHT22;50527;52.414;13.226;2023-02-13T10:11:03;8.70;99.90
64209;DHT22;50527;52.414;13.226;2023-02-13T10:16:29;8.50;99.90
64209;DHT22;50527;52.414;13.226;2023-02-13T10:19:16;8.60;99.90
64209;DHT22;50527;52.414;13.226;2023-02-13T10:22:16;8.70;99.90
64209;DHT22;50527;52.414;13.226;2023-02-13T10:25:13;8.80;99.90
64209;DHT22;50527;52.414;13.226;2023-02-13T10:27:48;9.00;99.90
64209;DHT22;50527;52.414;13.226;2023-02-13T10:30:23;9.10;99.90
64209;DHT22;50527;52.414;13.226;2023-02-13T10:35:36;9.10;99.90
64209;DHT22;50527;52.414;13.226;2023-02-13T10:38:12;9.10;99.90
64209;DHT22;50527;52.414;13.226;2023-02-13T10:40:51;9.10;99.90
64209;DHT22;50527;52.414;13.226;2023-02-13T10:43:19;9.10;99.90
64209;DHT22;50527;52.414;13.226;2023-02-13T10:46:21;9.10;99.90
64209;DHT22;50527;52.414;13.226;2023-02-13T10:48:59;9.10;99.90
64209;DHT22;50527;52.414;13.226;2023-02-13T10:51:34;9.10;99.90
64209;DHT22;50527;52.414;13.226;2023-02-13T10:57:17;8.90;99.90
64209;DHT22;50527;52.414;13.226;2023-02-13T11:00:09;8.90;99.90
64209;DHT22;50527;52.414;13.226;2023-02-13T11:02:37;8.80;99.90
64209;DHT22;50527;52.414;13.226;2023-02-13T11:05:23;8.80;99.90
64209;DHT22;50527;52.414;13.226;2023-02-13T11:07:49;8.90;99.90
64209;DHT22;50527;52.414;13.226;2023-02-13T11:10:16;8.90;99.90
64209;DHT22;50527;52.414;13.226;2023-02-13T11:12:42;9.00;99.90
64209;DHT22;50527;52.414;13.226;2023-02-13T11:15:23;9.00;99.90
64209;DHT22;50527;52.414;13.226;2023-02-13T11:17:51;9.10;99.90
64209;DHT22;50527;52.414;13.226;2023-02-13T11:20:32;9.00;99.90
64209;DHT22;50527;52.414;13.226;2023-02-13T11:26:03;9.00;99.90
64209;DHT22;50527;52.414;13.226;2023-02-13T11:28:35;9.00;99.90
64209;DHT22;50527;52.414;13.226;2023-02-13T11:31:21;9.00;99.90
64209;DHT22;50527;52.414;13.226;2023-02-13T11:33:47;9.10;99.90
64209;DHT22;50527;52.414;13.226;2023-02-13T11:36:49;9.20;99.90
64209;DHT22;50527;52.414;13.226;2023-02-13T11:39:20;9.10;99.90
64209;DHT22;50527;52.414;13.226;2023-02-13T11:41:46;9.00;99.90
64209;DHT22;50527;52.414;13.226;2023-02-13T11:44:26;9.10;99.90
64209;DHT22;50527;52.414;13.226;2023-02-13T11:46:54;9.00;99.90
64209;DHT22;50527;52.414;13.226;2023-02-13T11:49:28;9.00;99.90
64209;DHT22;50527;52.414;13.226;2023-02-13T11:51:56;9.00;99.90
64209;DHT22;50527;52.414;13.226;2023-02-13T11:54:44;8.90;99.90
64209;DHT22;50527;52.414;13.226;2023-02-13T11:57:24;9.00;99.90
64209;DHT22;50527;52.414;13.226;2023-02-13T11:59:52;9.00;99.90
64209;DHT22;50527;52.414;13.226;2023-02-13T12:02:24;9.10;99.90
64209;DHT22;50527;52.414;13.226;2023-02-13T12:04:53;9.10;99.90
64209;DHT22;50527;52.414;13.226;2023-02-13T12:07:32;9.10;99.90
64209;DHT22;50527;52.414;13.226;2023-02-13T12:10:21;9.20;99.90
64209;DHT22;50527;52.414;13.226;2023-02-13T12:15:39;9.20;99.90
64209;DHT22;50527;52.414;13.226;2023-02-13T12:20:56;9.20;99.90
64209;DHT22;50527;52.414;13.226;2023-02-13T12:23:48;9.20;99.60
64209;DHT22;50527;52.414;13.226;2023-02-13T12:29:07;9.20;99.80
64209;DHT22;50527;52.414;13.226;2023-02-13T12:34:59;9.30;99.60
64209;DHT22;50527;52.414;13.226;2023-02-13T12:46:25;9.20;99.90
64209;DHT22;50527;52.414;13.226;2023-02-13T12:49:13;9.20;99.90
64209;DHT22;50527;52.414;13.226;2023-02-13T12:52:05;9.10;99.80
64209;DHT22;50527;52.414;13.226;2023-02-13T13:03:14;9.10;98.80
64209;DHT22;50527;52.414;13.226;2023-02-13T13:13:52;9.10;98.20
64209;DHT22;50527;52.414;13.226;2023-02-13T13:19:32;9.00;97.80
64209;DHT22;50527;52.414;13.226;2023-02-13T13:22:06;8.90;98.90
64209;DHT22;50527;52.414;13.226;2023-02-13T13:27:25;8.90;98.20
64209;DHT22;50527;52.414;13.226;2023-02-13T13:29:57;8.90;99.30
64209;DHT22;50527;52.414;13.226;2023-02-13T13:32:25;8.90;99.30
64209;DHT22;50527;52.414;13.226;2023-02-13T13:34:52;8.90;99.70
64209;DHT22;50527;52.414;13.226;2023-02-13T13:37:45;9.00;99.50
64209;DHT22;50527;52.414;13.226;2023-02-13T13:40:39;8.90;99.80
64209;DHT22;50527;52.414;13.226;2023-02-13T13:48:49;8.90;99.90
64209;DHT22;50527;52.414;13.226;2023-02-13T13:51:17;8.90;99.90
64209;DHT22;50527;52.414;13.226;2023-02-13T13:59:54;8.90;99.90
64209;DHT22;50527;52.414;13.226;2023-02-13T14:05:08;8.90;99.90
64209;DHT22;50527;52.414;13.226;2023-02-13T14:07:41;8.90;99.90
64209;DHT22;50527;52.414;13.226;2023-02-13T14:20:50;8.90;99.90
64209;DHT22;50527;52.414;13.226;2023-02-13T14:28:53;8.80;99.90
64209;DHT22;50527;52.414;13.226;2023-02-13T14:31:20;8.80;99.90
64209;DHT22;50527;52.414;13.226;2023-02-13T14:36:45;9.00;99.90
64209;DHT22;50527;52.414;13.226;2023-02-13T14:39:18;8.90;99.90
64209;DHT22;50527;52.414;13.226;2023-02-13T14:46:49;8.90;99.90
64209;DHT22;50527;52.414;13.226;2023-02-13T14:49:24;8.80;99.90
64209;DHT22;50527;52.414;13.226;2023-02-13T14:51:58;8.80;99.90
64209;DHT22;50527;52.414;13.226;2023-02-13T14:54:45;8.80;99.90
64209;DHT22;50527;52.414;13.226;2023-02-13T14:57:26;8.80;99.90
64209;DHT22;50527;52.414;13.226;2023-02-13T14:59:56;8.70;99.90
64209;DHT22;50527;52.414;13.226;2023-02-13T15:02:27;8.70;99.90
64209;DHT22;50527;52.414;13.226;2023-02-13T15:05:12;8.70;99.90
64209;DHT22;50527;52.414;13.226;2023-02-13T15:08:12;8.80;99.90
64209;DHT22;50527;52.414;13.226;2023-02-13T15:11:07;8.80;99.90
64209;DHT22;50527;52.414;13.226;2023-02-13T15:13:53;8.70;99.90
64209;DHT22;50527;52.414;13.226;2023-02-13T15:16:18;8.70;99.90
64209;DHT22;50527;52.414;13.226;2023-02-13T15:18:47;8.70;99.90
64209;DHT22;50527;52.414;13.226;2023-02-13T15:21:21;8.70;99.90
64209;DHT22;50527;52.414;13.226;2023-02-13T15:23:49;8.70;99.90
64209;DHT22;50527;52.414;13.226;2023-02-13T15:26:19;8.70;99.90
64209;DHT22;50527;52.414;13.226;2023-02-13T15:31:30;8.70;99.90
64209;DHT22;50527;52.414;13.226;2023-02-13T15:33:58;8.80;99.90
64209;DHT22;50527;52.414;13.226;2023-02-13T15:36:25;8.80;99.90
64209;DHT22;50527;52.414;13.226;2023-02-13T15:38:59;8.70;99.90
64209;DHT22;50527;52.414;13.226;2023-02-13T15:41:31;8.80;99.90
64209;DHT22;50527;52.414;13.226;2023-02-13T15:43:58;8.80;99.90
64209;DHT22;50527;52.414;13.226;2023-02-13T15:46:30;8.70;99.90
64209;DHT22;50527;52.414;13.226;2023-02-13T15:49:03;8.70;99.90
64209;DHT22;50527;52.414;13.226;2023-02-13T15:51:29;8.60;99.90
64209;DHT22;50527;52.414;13.226;2023-02-13T15:54:00;8.70;99.90
64209;DHT22;50527;52.414;13.226;2023-02-13T15:56:27;8.60;99.90
64209;DHT22;50527;52.414;13.226;2023-02-13T15:58:53;8.50;99.90
64209;DHT22;50527;52.414;13.226;2023-02-13T16:01:19;8.50;99.90
64209;DHT22;50527;52.414;13.226;2023-02-13T16:03:48;8.50;99.90
64209;DHT22;50527;52.414;13.226;2023-02-13T16:06:16;8.60;99.90
64209;DHT22;50527;52.414;13.226;2023-02-13T16:08:51;8.60;99.90
64209;DHT22;50527;52.414;13.226;2023-02-13T16:11:19;8.50;99.90
64209;DHT22;50527;52.414;13.226;2023-02-13T16:13:59;8.50;99.90
64209;DHT22;50527;52.414;13.226;2023-02-13T16:16:26;8.50;99.90
64209;DHT22;50527;52.414;13.226;2023-02-13T16:18:52;8.50;99.90
64209;DHT22;50527;52.414;13.226;2023-02-13T16:21:26;8.40;99.90
64209;DHT22;50527;52.414;13.226;2023-02-13T16:24:03;8.40;99.90
64209;DHT22;50527;52.414;13.226;2023-02-13T16:26:30;8.50;99.90
64209;DHT22;50527;52.414;13.226;2023-02-13T16:28:57;8.60;99.90
64209;DHT22;50527;52.414;13.226;2023-02-13T16:31:22;8.50;99.90
64209;DHT22;50527;52.414;13.226;2023-02-13T16:33:48;8.50;99.90
64209;DHT22;50527;52.414;13.226;2023-02-13T16:38:41;8.50;99.90
64209;DHT22;50527;52.414;13.226;2023-02-13T16:43:55;8.50;99.90
64209;DHT22;50527;52.414;13.226;2023-02-13T16:46:35;8.50;99.90
64209;DHT22;50527;52.414;13.226;2023-02-13T16:52:03;8.40;99.90
64209;DHT22;50527;52.414;13.226;2023-02-13T16:54:46;8.40;99.90
64209;DHT22;50527;52.414;13.226;2023-02-13T16:59:52;8.40;99.90
64209;DHT22;50527;52.414;13.226;2023-02-13T17:02:26;8.50;99.90
64209;DHT22;50527;52.414;13.226;2023-02-13T17:04:57;8.50;99.90
64209;DHT22;50527;52.414;13.226;2023-02-13T17:07:30;8.50;99.90
64209;DHT22;50527;52.414;13.226;2023-02-13T17:10:00;8.40;99.90
64209;DHT22;50527;52.414;13.226;2023-02-13T17:12:28;8.30;99.90
64209;DHT22;50527;52.414;13.226;2023-02-13T17:14:56;8.30;99.90
64209;DHT22;50527;52.414;13.226;2023-02-13T17:17:23;8.40;99.90
64209;DHT22;50527;52.414;13.226;2023-02-13T17:19:50;8.40;99.90
64209;DHT22;50527;52.414;13.226;2023-02-13T17:24:54;8.40;99.90
64209;DHT22;50527;52.414;13.226;2023-02-13T17:27:20;8.40;99.90
64209;DHT22;50527;52.414;13.226;2023-02-13T17:29:45;8.40;99.90
64209;DHT22;50527;52.414;13.226;2023-02-13T17:32:17;8.40;99.90
64209;DHT22;50527;52.414;13.226;2023-02-13T17:34:43;8.40;99.90
64209;DHT22;50527;52.414;13.226;2023-02-13T17:37:25;8.40;99.90
64209;DHT22;50527;52.414;13.226;2023-02-13T17:39:51;8.50;99.90
64209;DHT22;50527;52.414;13.226;2023-02-13T17:42:20;8.50;99.80
64209;DHT22;50527;52.414;13.226;2023-02-13T17:44:47;8.40;99.90
64209;DHT22;50527;52.414;13.226;2023-02-13T17:47:13;8.40;99.90
64209;DHT22;50527;52.414;13.226;2023-02-13T17:49:38;8.40;99.90
64209;DHT22;50527;52.414;13.226;2023-02-13T17:52:04;8.40;99.90
64209;DHT22;50527;52.414;13.226;2023-02-13T17:54:29;8.40;99.90
64209;DHT22;50527;52.414;13.226;2023-02-13T17:56:57;8.50;99.90
64209;DHT22;50527;52.414;13.226;2023-02-13T17:59:23;8.50;99.90
64209;DHT22;50527;52.414;13.226;2023-02-13T18:01:49;8.50;99.90
64209;DHT22;50527;52.414;13.226;2023-02-13T18:04:14;8.50;99.90
64209;DHT22;50527;52.414;13.226;2023-02-13T18:06:40;8.50;99.90
64209;DHT22;50527;52.414;13.226;2023-02-13T18:09:05;8.40;99.90
64209;DHT22;50527;52.414;13.226;2023-02-13T18:11:31;8.40;99.90
64209;DHT22;50527;52.414;13.226;2023-02-13T18:13:56;8.30;99.90
64209;DHT22;50527;52.414;13.226;2023-02-13T18:16:21;8.30;99.90